Spring Hope, North Carolina
Current Conditions -  °F | °C
As of 1:35 PM on Wednesday 26 Nov 2014 (Local Time) from KLHZ Reporting Station
Drizzle Drizzle  
Wind Chill: 38°   Ceiling: 1100
Heat Index: 43°   Visibility: 10mi
Dew Point: 41°   Wind: 8mph
Humidity: 93%   Direction: 330°NNW
Pressure: 29.91"   Gusts: NA
Location:  35.95°N, 78.11°W
Report Text: KLHZ 261835Z AUTO 33007KT 10SM -DZ OVC011 06/05 A2991 RMK AO2
Loading
Personal Weather Stations






























Interactive Weather Map New forecast layout! Learn more

10-Day Weather Forecast

Advertisements
Track Severe Weather on mobile